Time;durP1;ratioP1;P1;durP2;ratioP2;P2;SDS_P1;SDS_P2;PMS_P1;PMS_P2;Temp;Humidity;BMP_temperature;BMP_pressure;BME280_temperature;BME280_humidity;BME280_pressure;Samples;Min_cycle;Max_cycle;Signal;HPM_P1;HPM_P2
2023/04/14 00:01:33;;;;;;;;;;;;;;;12.66;55.36;99044.44;5340334;32;33306;-62
2023/04/14 00:04:36;;;;;;;;;;;;;;;12.94;54.87;99030.16;5346190;32;34368;-64
2023/04/14 00:07:38;;;;;;;;;;;;;;;12.71;55.79;99022.09;5327769;32;33692;-64
2023/04/14 00:10:40;;;;;;;;;;;;;;;12.90;55.49;99011.09;5347404;32;46195;-68
2023/04/14 00:13:42;;;;;;;;;;;;;;;12.94;55.75;98999.38;5344912;32;34143;-64
2023/04/14 00:16:45;;;;;;;;;;;;;;;12.68;54.88;98989.81;5338182;32;32893;-68
2023/04/14 00:19:47;;;;;;;;;;;;;;;12.74;54.21;98981.47;5347010;32;34396;-65
2023/04/14 00:22:49;;;;;;;;;;;;;;;13.39;52.37;98977.75;5339958;32;33842;-68
2023/04/14 00:25:51;;;;;;;;;;;;;;;13.47;52.27;98980.69;5350182;32;33968;-63
2023/04/14 00:28:52;;;;;;;;;;;;;;;13.03;53.52;98984.72;5339509;32;34094;-64
2023/04/14 00:31:55;;;;;;;;;;;;;;;13.75;51.85;98971.56;5323132;32;34431;-68
2023/04/14 00:34:58;;;;;;;;;;;;;;;13.67;50.51;98964.22;5332474;32;34612;-69
2023/04/14 00:38:00;;;;;;;;;;;;;;;14.14;50.32;98980.09;5327802;32;33705;-70
2023/04/14 00:41:02;;;;;;;;;;;;;;;14.03;49.86;98994.09;5349573;32;33445;-68
2023/04/14 00:44:04;;;;;;;;;;;;;;;14.09;50.29;98991.84;5339049;32;33741;-70
2023/04/14 00:47:06;;;;;;;;;;;;;;;13.69;51.28;98993.97;5348201;32;33739;-68
2023/04/14 00:50:08;;;;;;;;;;;;;;;14.17;50.92;98988.63;5338240;32;34406;-70
2023/04/14 00:53:11;;;;;;;;;;;;;;;14.18;49.56;98984.19;5340496;32;45922;-62
2023/04/14 00:56:13;;;;;;;;;;;;;;;14.15;49.97;98985.25;5346556;32;33406;-64
2023/04/14 00:59:15;;;;;;;;;;;;;;;13.68;50.66;98981.75;5339660;32;33678;-68
2023/04/14 01:02:17;;;;;;;;;;;;;;;14.22;48.78;98975.06;5351377;32;34967;-70
2023/04/14 01:05:19;;;;;;;;;;;;;;;13.65;50.63;98973.19;5325439;32;34353;-63
2023/04/14 01:08:21;;;;;;;;;;;;;;;13.24;51.37;98974.44;5350313;32;34771;-68
2023/04/14 01:11:30;;;;;;;;;;;;;;;13.04;51.15;98967.94;5344492;32;34589;-62
2023/04/14 01:14:38;;;;;;;;;;;;;;;13.01;51.12;98965.53;5334044;32;33648;-64
2023/04/14 01:17:58;;;;;;;;;;;;;;;13.01;51.56;98963.72;5353358;32;45406;-66
2023/04/14 01:21:05;;;;;;;;;;;;;;;12.77;51.53;98951.44;5340940;32;35718;-68
2023/04/14 01:24:17;;;;;;;;;;;;;;;13.08;50.66;98948.31;5346307;32;34081;-67
2023/04/14 01:27:48;;;;;;;;;;;;;;;12.97;51.08;98940.31;5342943;32;46642;-68
2023/04/14 01:30:50;;;;;;;;;;;;;;;12.83;51.57;98924.63;5317337;32;46136;-69
2023/04/14 01:34:03;;;;;;;;;;;;;;;13.28;50.38;98899.41;5333544;32;35178;-69
2023/04/14 01:37:10;;;;;;;;;;;;;;;12.48;52.23;98876.09;5344002;32;33808;-70
2023/04/14 01:40:13;;;;;;;;;;;;;;;12.83;51.44;98883.28;5344810;32;43055;-67
2023/04/14 01:43:15;;;;;;;;;;;;;;;13.18;50.22;98870.16;5340384;32;33787;-70
2023/04/14 01:46:17;;;;;;;;;;;;;;;12.76;51.51;98887.34;5338067;32;33583;-62
2023/04/14 01:49:19;;;;;;;;;;;;;;;12.52;51.96;98881.16;5343759;32;34172;-63
2023/04/14 01:52:21;;;;;;;;;;;;;;;13.19;50.01;98871.00;5344893;32;34218;-68
2023/04/14 01:55:24;;;;;;;;;;;;;;;12.98;50.78;98881.34;5334396;32;33909;-63
2023/04/14 01:58:27;;;;;;;;;;;;;;;13.40;49.30;98884.47;5339092;32;33653;-68
2023/04/14 02:01:29;;;;;;;;;;;;;;;13.23;49.80;98888.34;5349358;32;34211;-69
2023/04/14 02:04:31;;;;;;;;;;;;;;;12.94;49.89;98885.12;5335029;32;34739;-72
2023/04/14 02:07:33;;;;;;;;;;;;;;;13.63;48.31;98872.16;5338766;32;33602;-70
2023/04/14 02:10:35;;;;;;;;;;;;;;;13.47;48.60;98883.88;5348742;32;34884;-64
2023/04/14 02:13:37;;;;;;;;;;;;;;;13.81;47.12;98863.69;5336915;32;33992;-63
2023/04/14 02:16:39;;;;;;;;;;;;;;;12.86;49.47;98866.41;5337785;32;32561;-68
2023/04/14 02:19:41;;;;;;;;;;;;;;;12.77;50.41;98854.72;5336623;32;47165;-67
2023/04/14 02:22:43;;;;;;;;;;;;;;;12.90;49.59;98858.16;5351143;32;33353;-68
2023/04/14 02:25:53;;;;;;;;;;;;;;;12.59;50.11;98843.72;5331172;32;33928;-68
2023/04/14 02:29:15;;;;;;;;;;;;;;;13.35;48.53;98839.09;5339769;32;34540;-69
2023/04/14 02:32:20;;;;;;;;;;;;;;;13.51;48.12;98848.34;5341790;32;45350;-68
2023/04/14 02:35:26;;;;;;;;;;;;;;;14.21;45.69;98849.19;5338499;32;33286;-64
2023/04/14 02:38:29;;;;;;;;;;;;;;;13.76;46.80;98863.19;5353271;32;32491;-70
2023/04/14 02:41:31;;;;;;;;;;;;;;;13.99;46.26;98863.22;5347871;32;34121;-63
2023/04/14 02:44:34;;;;;;;;;;;;;;;13.41;48.09;98862.38;5333625;32;34151;-63
2023/04/14 02:47:37;;;;;;;;;;;;;;;13.20;48.52;98856.84;5349924;32;34200;-63
2023/04/14 02:50:40;;;;;;;;;;;;;;;13.12;48.41;98841.59;5338417;32;34475;-70
2023/04/14 02:53:41;;;;;;;;;;;;;;;13.24;48.53;98853.06;5349573;32;44761;-63
2023/04/14 02:56:43;;;;;;;;;;;;;;;13.27;48.47;98847.59;5342859;32;34018;-62
2023/04/14 02:59:45;;;;;;;;;;;;;;;13.07;48.74;98846.34;5343797;32;34937;-68
2023/04/14 03:02:47;;;;;;;;;;;;;;;12.97;49.46;98848.00;5338812;32;34373;-68
2023/04/14 03:05:49;;;;;;;;;;;;;;;13.55;47.52;98843.69;5342959;32;32479;-67
2023/04/14 03:08:51;;;;;;;;;;;;;;;13.38;48.26;98842.31;5330779;32;34044;-70
2023/04/14 03:11:53;;;;;;;;;;;;;;;13.99;46.59;98832.38;5343948;32;33802;-69
2023/04/14 03:14:55;;;;;;;;;;;;;;;13.73;46.96;98837.03;5347355;32;33940;-64
2023/04/14 03:17:57;;;;;;;;;;;;;;;13.69;47.53;98829.44;5344813;32;33842;-64
2023/04/14 03:21:00;;;;;;;;;;;;;;;13.73;46.92;98820.34;5348913;32;33949;-68
2023/04/14 03:24:02;;;;;;;;;;;;;;;13.65;47.10;98801.59;5327315;32;33482;-67
2023/04/14 03:27:06;;;;;;;;;;;;;;;13.25;47.99;98809.91;5344012;32;34140;-63
2023/04/14 03:30:08;;;;;;;;;;;;;;;13.03;49.16;98805.37;5332720;32;33317;-63
2023/04/14 03:33:11;;;;;;;;;;;;;;;13.04;49.12;98793.84;5332429;32;43086;-67
2023/04/14 03:36:13;;;;;;;;;;;;;;;12.90;49.38;98797.53;5343877;32;33289;-68
2023/04/14 03:39:15;;;;;;;;;;;;;;;13.38;48.85;98772.88;5335654;32;34037;-62
2023/04/14 03:42:18;;;;;;;;;;;;;;;13.54;47.63;98758.41;5345001;32;33754;-64
2023/04/14 03:45:22;;;;;;;;;;;;;;;13.70;47.93;98760.69;5335917;32;34596;-63
2023/04/14 03:48:28;;;;;;;;;;;;;;;14.42;46.11;98765.53;5336736;32;34544;-64
2023/04/14 03:51:30;;;;;;;;;;;;;;;14.04;46.67;98756.25;5344000;32;33692;-65
2023/04/14 03:54:32;;;;;;;;;;;;;;;13.81;47.85;98812.66;5337819;32;33574;-69
2023/04/14 03:57:35;;;;;;;;;;;;;;;14.70;45.36;98887.66;5344663;32;33168;-65
2023/04/14 04:00:37;;;;;;;;;;;;;;;14.36;46.15;98887.63;5333653;32;33332;-64
2023/04/14 04:03:38;;;;;;;;;;;;;;;13.51;48.95;98885.31;5344269;32;33754;-67
2023/04/14 04:06:42;;;;;;;;;;;;;;;14.68;45.74;98863.09;5341199;32;44765;-63
2023/04/14 04:09:44;;;;;;;;;;;;;;;14.36;47.29;98851.47;5337729;32;34511;-69
2023/04/14 04:12:46;;;;;;;;;;;;;;;13.98;47.90;98841.25;5346093;32;34428;-64
2023/04/14 04:15:49;;;;;;;;;;;;;;;13.75;48.87;98840.38;5335149;32;36382;-68
2023/04/14 04:18:51;;;;;;;;;;;;;;;13.75;48.88;98834.25;5345705;32;33205;-68
2023/04/14 04:21:55;;;;;;;;;;;;;;;14.07;47.67;98829.13;5336511;32;33885;-70
2023/04/14 04:24:57;;;;;;;;;;;;;;;14.78;46.21;98845.56;5324752;32;33914;-62
2023/04/14 04:27:59;;;;;;;;;;;;;;;14.18;47.51;98841.50;5341271;32;33655;-64
2023/04/14 04:31:01;;;;;;;;;;;;;;;13.79;48.82;98839.19;5323107;32;33536;-63
2023/04/14 04:34:04;;;;;;;;;;;;;;;14.81;46.43;98832.06;5343528;32;33936;-69
2023/04/14 04:37:06;;;;;;;;;;;;;;;14.08;47.68;98828.16;5333903;32;34196;-70
2023/04/14 04:40:08;;;;;;;;;;;;;;;13.63;49.33;98814.91;5343504;32;33157;-69
2023/04/14 04:43:10;;;;;;;;;;;;;;;14.25;47.94;98817.13;5337820;32;46160;-69
2023/04/14 04:46:18;;;;;;;;;;;;;;;14.09;48.36;98814.84;5324726;32;34076;-68
2023/04/14 04:49:20;;;;;;;;;;;;;;;14.04;48.15;98811.72;5344291;32;33654;-64
2023/04/14 04:52:24;;;;;;;;;;;;;;;14.05;49.09;98809.94;5338641;32;33600;-72
2023/04/14 04:55:26;;;;;;;;;;;;;;;14.66;46.99;98809.50;5327949;32;33742;-69
2023/04/14 04:58:28;;;;;;;;;;;;;;;13.95;48.50;98820.34;5337462;32;34163;-68
2023/04/14 05:01:30;;;;;;;;;;;;;;;13.81;48.89;98817.94;5342529;32;33214;-67
2023/04/14 05:04:32;;;;;;;;;;;;;;;14.16;48.00;98817.81;5333099;32;33328;-70
2023/04/14 05:07:34;;;;;;;;;;;;;;;14.06;48.57;98838.88;5322131;32;33154;-63
2023/04/14 05:10:36;;;;;;;;;;;;;;;14.26;47.57;98860.25;5348108;32;33542;-67
2023/04/14 05:13:38;;;;;;;;;;;;;;;13.36;49.77;98853.97;5333064;32;34043;-67
2023/04/14 05:16:40;;;;;;;;;;;;;;;13.89;49.17;98854.31;5343299;32;44018;-64
2023/04/14 05:19:42;;;;;;;;;;;;;;;13.13;50.49;98852.97;5316481;32;34025;-68
2023/04/14 05:22:44;;;;;;;;;;;;;;;14.57;46.66;98846.31;5343411;32;35723;-63
2023/04/14 05:25:46;;;;;;;;;;;;;;;13.05;51.00;98863.25;5338921;32;34417;-64
2023/04/14 05:28:48;;;;;;;;;;;;;;;13.49;49.81;98852.91;5337247;32;34126;-64
2023/04/14 05:31:50;;;;;;;;;;;;;;;13.48;50.12;98850.41;5324528;32;34484;-69
2023/04/14 05:34:52;;;;;;;;;;;;;;;13.31;50.53;98846.38;5348820;32;34309;-68
2023/04/14 05:37:54;;;;;;;;;;;;;;;13.93;49.93;98834.66;5348557;32;33313;-64
2023/04/14 05:40:56;;;;;;;;;;;;;;;14.11;50.45;98846.44;5342730;32;34072;-68
2023/04/14 05:43:58;;;;;;;;;;;;;;;13.91;49.73;98845.34;5343937;32;33859;-65
2023/04/14 05:47:01;;;;;;;;;;;;;;;14.07;50.44;98842.34;5337189;32;34510;-64
2023/04/14 05:50:03;;;;;;;;;;;;;;;13.90;50.29;98848.06;5339051;32;33675;-63
2023/04/14 05:53:05;;;;;;;;;;;;;;;13.70;50.83;98855.72;5346657;32;33295;-64
2023/04/14 05:56:10;;;;;;;;;;;;;;;14.96;46.47;98852.00;5335151;32;34441;-63
2023/04/14 05:59:12;;;;;;;;;;;;;;;14.57;47.84;98864.81;5349295;32;44446;-63
2023/04/14 06:02:14;;;;;;;;;;;;;;;14.47;47.58;98855.09;5340467;32;35960;-65
2023/04/14 06:05:16;;;;;;;;;;;;;;;14.61;47.51;98847.72;5347609;32;35611;-70
2023/04/14 06:08:19;;;;;;;;;;;;;;;15.15;46.25;98843.41;5342112;32;34574;-65
2023/04/14 06:11:21;;;;;;;;;;;;;;;14.03;49.11;98836.44;5346204;32;33583;-71
2023/04/14 06:14:23;;;;;;;;;;;;;;;14.68;47.67;98844.59;5353205;32;34400;-70
2023/04/14 06:17:25;;;;;;;;;;;;;;;14.08;49.13;98847.50;5351195;32;35285;-64
2023/04/14 06:20:27;;;;;;;;;;;;;;;15.28;45.80;98843.22;5337794;32;33319;-69
2023/04/14 06:23:31;;;;;;;;;;;;;;;13.93;49.08;98843.41;5346517;32;34466;-70
2023/04/14 06:26:33;;;;;;;;;;;;;;;15.06;46.55;98842.31;5352383;32;33751;-70
2023/04/14 06:29:35;;;;;;;;;;;;;;;14.22;48.83;98837.66;5337034;32;35078;-66
2023/04/14 06:32:37;;;;;;;;;;;;;;;13.92;49.57;98820.59;5327760;32;34454;-63
2023/04/14 06:35:39;;;;;;;;;;;;;;;14.56;47.75;98809.44;5355641;32;34389;-63
2023/04/14 06:38:41;;;;;;;;;;;;;;;14.97;46.81;98818.44;5345332;32;44784;-62
2023/04/14 06:41:43;;;;;;;;;;;;;;;14.72;47.12;98815.16;5359028;32;33746;-65
2023/04/14 06:44:45;;;;;;;;;;;;;;;14.59;48.18;98807.38;5346661;32;33143;-63
2023/04/14 06:47:47;;;;;;;;;;;;;;;14.45;48.33;98809.41;5352271;32;34443;-67
2023/04/14 06:50:55;;;;;;;;;;;;;;;13.78;49.87;98819.03;5333396;32;34518;-61
2023/04/14 06:53:57;;;;;;;;;;;;;;;14.61;48.28;98810.72;5348368;32;34315;-60
2023/04/14 06:57:00;;;;;;;;;;;;;;;14.10;49.37;98807.75;5362184;32;33863;-62
2023/04/14 07:00:03;;;;;;;;;;;;;;;14.77;47.81;98812.97;5347683;32;34432;-63
2023/04/14 07:03:05;;;;;;;;;;;;;;;14.93;47.57;98817.84;5357686;32;33970;-74
2023/04/14 07:06:09;;;;;;;;;;;;;;;14.26;49.01;98797.66;5333710;32;35077;-71
2023/04/14 07:09:12;;;;;;;;;;;;;;;14.45;48.00;98796.19;5355396;32;46544;-61
2023/04/14 07:12:14;;;;;;;;;;;;;;;15.16;46.97;98806.22;5352779;32;37363;-70
2023/04/14 07:15:16;;;;;;;;;;;;;;;15.06;47.38;98805.28;5349226;32;33693;-62
2023/04/14 07:18:18;;;;;;;;;;;;;;;14.66;48.13;98814.81;5360612;32;34927;-62
2023/04/14 07:21:21;;;;;;;;;;;;;;;14.51;49.14;98796.56;5354348;32;33267;-72
2023/04/14 07:24:22;;;;;;;;;;;;;;;15.54;46.29;98802.16;5356667;32;34538;-62
2023/04/14 07:27:27;;;;;;;;;;;;;;;16.47;43.80;98803.87;5355532;32;33562;-61
2023/04/14 07:30:29;;;;;;;;;;;;;;;16.41;43.74;98804.41;5424300;27;34177;-61
2023/04/14 07:33:31;;;;;;;;;;;;;;;15.98;44.80;98801.06;5369251;32;32351;-62
2023/04/14 07:36:33;;;;;;;;;;;;;;;16.35;43.83;98787.22;5365606;32;36021;-70
2023/04/14 07:39:35;;;;;;;;;;;;;;;15.26;46.61;98790.41;5385489;32;33364;-73
2023/04/14 07:42:37;;;;;;;;;;;;;;;15.27;46.93;98791.25;5377273;32;34119;-61
2023/04/14 07:45:39;;;;;;;;;;;;;;;15.44;45.90;98780.91;5377072;32;33473;-72
2023/04/14 07:48:41;;;;;;;;;;;;;;;15.93;45.04;98782.06;5368755;32;44539;-73
2023/04/14 07:51:43;;;;;;;;;;;;;;;14.58;49.04;98789.00;5372305;32;34039;-62
2023/04/14 07:54:45;;;;;;;;;;;;;;;14.74;49.06;98788.56;5381348;32;33790;-71
2023/04/14 07:57:47;;;;;;;;;;;;;;;15.48;47.50;98786.81;5373827;32;33642;-72
2023/04/14 08:00:50;;;;;;;;;;;;;;;15.74;46.56;98791.72;5377880;32;33893;-61
2023/04/14 08:03:51;;;;;;;;;;;;;;;16.00;46.91;98792.97;5372369;32;33882;-61
2023/04/14 08:06:54;;;;;;;;;;;;;;;16.57;45.43;98786.19;5378024;32;33338;-61
2023/04/14 08:09:56;;;;;;;;;;;;;;;16.80;44.11;98802.69;5370903;32;33506;-62
2023/04/14 08:12:58;;;;;;;;;;;;;;;16.56;44.97;98808.38;5371764;32;34333;-62
2023/04/14 08:16:03;;;;;;;;;;;;;;;15.93;47.12;98802.41;5374902;32;35324;-73
2023/04/14 08:19:05;;;;;;;;;;;;;;;16.10;46.68;98788.56;5368037;32;33867;-63
2023/04/14 08:22:07;;;;;;;;;;;;;;;15.81;47.25;98784.94;5380359;32;33433;-69
2023/04/14 08:25:13;;;;;;;;;;;;;;;16.08;46.33;98789.66;5379255;32;33737;-74
2023/04/14 08:28:16;;;;;;;;;;;;;;;15.93;47.09;98778.56;5382551;32;44645;-64
2023/04/14 08:31:20;;;;;;;;;;;;;;;15.57;48.04;98770.12;5359019;32;34687;-64
2023/04/14 08:34:23;;;;;;;;;;;;;;;16.24;46.49;98766.13;5366014;32;34911;-69
2023/04/14 08:37:29;;;;;;;;;;;;;;;16.41;46.16;98780.53;5381719;32;33226;-76
2023/04/14 08:40:36;;;;;;;;;;;;;;;16.24;46.55;98785.53;5376517;32;33714;-71
2023/04/14 08:43:38;;;;;;;;;;;;;;;16.31;46.38;98785.00;5378372;32;34188;-74
2023/04/14 08:46:40;;;;;;;;;;;;;;;15.87;47.23;98784.41;5368498;32;33524;-67
2023/04/14 08:49:45;;;;;;;;;;;;;;;16.36;46.28;98790.72;5378091;32;47562;-67
2023/04/14 08:52:48;;;;;;;;;;;;;;;15.64;48.36;98797.78;5371488;32;33641;-73
2023/04/14 08:55:50;;;;;;;;;;;;;;;15.38;50.02;98807.91;5372701;32;34885;-69
2023/04/14 08:58:52;;;;;;;;;;;;;;;15.85;49.38;98812.84;5377771;32;33678;-72
2023/04/14 09:01:54;;;;;;;;;;;;;;;15.95;49.08;98819.00;5373359;32;34269;-71
2023/04/14 09:04:57;;;;;;;;;;;;;;;15.43;51.39;98813.66;5378282;32;34276;-67
2023/04/14 09:07:59;;;;;;;;;;;;;;;15.41;52.47;98807.66;5374218;32;33132;-72
2023/04/14 09:11:02;;;;;;;;;;;;;;;15.10;54.91;98798.78;5380912;32;33010;-75
2023/04/14 09:14:04;;;;;;;;;;;;;;;14.96;54.78;98820.25;5379624;32;33731;-70
2023/04/14 09:17:09;;;;;;;;;;;;;;;14.96;54.03;98822.06;5373751;32;32960;-85
2023/04/14 09:20:11;;;;;;;;;;;;;;;16.28;50.25;98820.53;5372590;32;43001;-69
2023/04/14 09:23:33;;;;;;;;;;;;;;;16.01;50.84;98818.50;5369127;32;34514;-72
2023/04/14 09:26:36;;;;;;;;;;;;;;;15.19;55.67;98828.94;5377178;32;34505;-74
2023/04/14 09:29:38;;;;;;;;;;;;;;;16.12;52.01;98829.00;5362680;32;34104;-67
2023/04/14 09:32:40;;;;;;;;;;;;;;;16.02;53.02;98833.41;5365113;32;44728;-71
2023/04/14 09:35:49;;;;;;;;;;;;;;;15.53;54.74;98834.09;5380662;32;33316;-77
2023/04/14 09:38:51;;;;;;;;;;;;;;;16.09;52.71;98834.56;5373540;32;33749;-67
2023/04/14 09:41:53;;;;;;;;;;;;;;;15.04;57.33;98849.56;5385228;32;33933;-65
2023/04/14 09:44:55;;;;;;;;;;;;;;;15.64;56.21;98842.81;5369191;32;33778;-61
2023/04/14 09:48:07;;;;;;;;;;;;;;;15.02;58.80;98832.16;5378605;32;33854;-66
2023/04/14 09:51:09;;;;;;;;;;;;;;;14.40;60.76;98815.06;5376869;32;34502;-75
2023/04/14 09:54:11;;;;;;;;;;;;;;;14.13;65.33;98827.81;5371288;32;44743;-70
2023/04/14 09:57:23;;;;;;;;;;;;;;;14.75;65.06;98824.63;5373535;32;33298;-76
2023/04/14 10:00:25;;;;;;;;;;;;;;;14.88;62.38;98820.06;5370821;32;33959;-65
2023/04/14 10:03:46;;;;;;;;;;;;;;;14.95;61.70;98821.22;5380664;32;34429;-75
2023/04/14 10:06:48;;;;;;;;;;;;;;;14.80;63.71;98828.59;5366335;32;44784;-74
2023/04/14 10:09:50;;;;;;;;;;;;;;;15.06;61.18;98826.44;5372710;32;33364;-67
2023/04/14 10:12:53;;;;;;;;;;;;;;;15.23;61.16;98819.78;5371579;32;35991;-63
2023/04/14 10:15:55;;;;;;;;;;;;;;;14.65;63.87;98827.19;5368009;32;33153;-71
2023/04/14 10:18:57;;;;;;;;;;;;;;;14.67;64.77;98830.53;5374081;32;34506;-69
2023/04/14 10:22:00;;;;;;;;;;;;;;;15.20;63.03;98821.81;5368819;32;34614;-71
2023/04/14 10:25:03;;;;;;;;;;;;;;;14.41;66.64;98824.66;5373622;32;33034;-74
2023/04/14 10:28:06;;;;;;;;;;;;;;;14.15;68.38;98825.88;5366515;32;33659;-67
2023/04/14 10:31:18;;;;;;;;;;;;;;;14.29;69.07;98836.19;5353209;32;33694;-64
2023/04/14 10:34:24;;;;;;;;;;;;;;;14.31;65.86;98824.56;5373835;32;34134;-63
2023/04/14 10:37:26;;;;;;;;;;;;;;;13.63;70.32;98819.34;5367876;32;33810;-64
2023/04/14 10:40:28;;;;;;;;;;;;;;;14.84;64.14;98835.31;5376029;32;33649;-64
2023/04/14 10:43:30;;;;;;;;;;;;;;;14.63;66.11;98837.06;5374859;32;35096;-64
2023/04/14 10:46:42;;;;;;;;;;;;;;;14.02;67.65;98826.84;5387668;32;33930;-64
2023/04/14 10:49:44;;;;;;;;;;;;;;;15.10;63.75;98821.75;5378014;32;45317;-65
2023/04/14 10:52:49;;;;;;;;;;;;;;;14.77;65.81;98831.50;5372812;32;35798;-63
2023/04/14 10:55:55;;;;;;;;;;;;;;;14.01;69.33;98827.81;5381081;32;35037;-64
2023/04/14 10:58:58;;;;;;;;;;;;;;;14.42;68.34;98818.41;5379633;32;34446;-76
2023/04/14 11:02:00;;;;;;;;;;;;;;;13.66;71.11;98824.41;5381873;32;33056;-64
2023/04/14 11:05:10;;;;;;;;;;;;;;;14.48;68.36;98812.66;5370806;32;33364;-76
2023/04/14 11:08:13;;;;;;;;;;;;;;;14.01;70.03;98814.59;5373843;32;45174;-65
2023/04/14 11:11:16;;;;;;;;;;;;;;;14.28;70.17;98806.28;5379321;32;33309;-63
2023/04/14 11:14:24;;;;;;;;;;;;;;;13.98;71.77;98811.37;5372754;32;33934;-76
2023/04/14 11:17:28;;;;;;;;;;;;;;;13.69;73.17;98809.16;5383366;32;34355;-77
2023/04/14 11:20:30;;;;;;;;;;;;;;;14.13;72.31;98804.87;5376155;32;33415;-64
2023/04/14 11:23:32;;;;;;;;;;;;;;;14.06;73.04;98801.03;5383732;32;33266;-65
2023/04/14 11:26:35;;;;;;;;;;;;;;;14.54;69.68;98801.59;5368366;32;34160;-75
2023/04/14 11:29:37;;;;;;;;;;;;;;;14.93;69.00;98799.31;5359381;32;33761;-76
2023/04/14 11:32:50;;;;;;;;;;;;;;;14.28;71.60;98792.25;5374009;32;34132;-76
2023/04/14 11:35:52;;;;;;;;;;;;;;;14.43;72.17;98793.69;5368740;32;34312;-63
2023/04/14 11:38:54;;;;;;;;;;;;;;;14.56;71.83;98789.13;5379114;32;33358;-64
2023/04/14 11:41:59;;;;;;;;;;;;;;;14.58;70.93;98796.91;5370151;32;35883;-74
2023/04/14 11:45:01;;;;;;;;;;;;;;;14.08;74.46;98794.66;5373585;32;34191;-64
2023/04/14 11:48:04;;;;;;;;;;;;;;;14.10;73.79;98791.88;5378364;32;33264;-64
2023/04/14 11:51:06;;;;;;;;;;;;;;;14.21;73.09;98780.47;5374298;32;33340;-75
2023/04/14 11:54:10;;;;;;;;;;;;;;;14.07;75.28;98793.00;5384373;32;33329;-65
2023/04/14 11:57:13;;;;;;;;;;;;;;;13.34;77.68;98788.13;5369231;32;44888;-76
2023/04/14 12:00:14;;;;;;;;;;;;;;;13.08;80.01;98791.84;5380987;32;32581;-64
2023/04/14 12:03:17;;;;;;;;;;;;;;;13.47;78.24;98788.03;5368196;32;33984;-76
2023/04/14 12:06:19;;;;;;;;;;;;;;;13.47;77.21;98783.59;5364659;32;33625;-75
2023/04/14 12:09:21;;;;;;;;;;;;;;;13.36;77.59;98786.19;5372341;32;34323;-75
2023/04/14 12:12:23;;;;;;;;;;;;;;;13.30;78.60;98786.66;5367339;32;33151;-75
2023/04/14 12:15:27;;;;;;;;;;;;;;;13.52;77.00;98783.22;5370521;32;34434;-65
2023/04/14 12:18:29;;;;;;;;;;;;;;;13.24;78.75;98792.41;5361942;32;33770;-77
2023/04/14 12:21:31;;;;;;;;;;;;;;;13.40;78.39;98777.09;5370073;32;35638;-76
2023/04/14 12:24:36;;;;;;;;;;;;;;;13.08;79.32;98770.75;5362977;32;34351;-65
2023/04/14 12:27:38;;;;;;;;;;;;;;;13.36;77.67;98766.87;5360983;32;33913;-76
2023/04/14 12:30:41;;;;;;;;;;;;;;;13.12;77.40;98761.63;5349678;32;44085;-74
2023/04/14 12:33:42;;;;;;;;;;;;;;;13.12;77.69;98774.81;5361233;32;34115;-64
2023/04/14 12:36:49;;;;;;;;;;;;;;;12.84;76.47;98776.88;5368167;32;33754;-64
2023/04/14 12:39:53;;;;;;;;;;;;;;;12.68;78.00;98792.13;5357001;32;33833;-71
2023/04/14 12:42:55;;;;;;;;;;;;;;;12.17;79.88;98794.91;5374611;32;34609;-65
2023/04/14 12:45:57;;;;;;;;;;;;;;;12.61;77.05;98804.06;5355989;32;33916;-75
2023/04/14 12:48:59;;;;;;;;;;;;;;;12.07;80.21;98805.25;5358848;32;34193;-75
2023/04/14 12:52:02;;;;;;;;;;;;;;;12.25;79.68;98816.31;5372438;32;33712;-64
2023/04/14 12:55:05;;;;;;;;;;;;;;;11.63;80.67;98821.47;5359860;32;34134;-64
2023/04/14 12:58:08;;;;;;;;;;;;;;;11.55;83.63;98819.37;5376521;32;34024;-63
2023/04/14 13:01:10;;;;;;;;;;;;;;;11.91;82.15;98809.91;5367580;32;43739;-64
2023/04/14 13:04:12;;;;;;;;;;;;;;;12.27;82.94;98822.28;5372417;32;33598;-64
2023/04/14 13:07:15;;;;;;;;;;;;;;;12.32;78.33;98837.78;5369909;32;34863;-76
2023/04/14 13:10:17;;;;;;;;;;;;;;;12.03;79.78;98831.91;5359433;32;33949;-63
2023/04/14 13:13:18;;;;;;;;;;;;;;;12.18;79.26;98860.66;5371295;32;34654;-64
2023/04/14 13:16:21;;;;;;;;;;;;;;;11.99;77.98;98854.16;5360980;32;34487;-76
2023/04/14 13:19:26;;;;;;;;;;;;;;;11.71;75.48;98847.25;5370588;32;33396;-65
2023/04/14 13:22:28;;;;;;;;;;;;;;;11.78;75.90;98828.31;5364266;32;33985;-64
2023/04/14 13:25:30;;;;;;;;;;;;;;;12.07;73.82;98841.28;5365659;32;33544;-63
2023/04/14 13:28:32;;;;;;;;;;;;;;;11.84;72.18;98838.44;5366469;32;34517;-73
2023/04/14 13:31:34;;;;;;;;;;;;;;;12.20;72.63;98857.91;5338749;32;33388;-77
2023/04/14 13:34:37;;;;;;;;;;;;;;;11.90;72.17;98858.25;5369709;32;33514;-63
2023/04/14 13:37:40;;;;;;;;;;;;;;;11.67;74.88;98867.69;5356268;32;33727;-65
2023/04/14 13:40:41;;;;;;;;;;;;;;;11.34;76.80;98868.16;5363958;32;44706;-76
2023/04/14 13:43:43;;;;;;;;;;;;;;;11.46;78.05;98877.00;5364216;32;33998;-76
2023/04/14 13:46:47;;;;;;;;;;;;;;;11.81;77.43;98875.53;5360389;32;36265;-76
2023/04/14 13:49:49;;;;;;;;;;;;;;;11.78;78.98;98867.78;5356998;32;33365;-64
2023/04/14 13:52:51;;;;;;;;;;;;;;;12.18;74.52;98859.84;5370033;32;34690;-64
2023/04/14 13:55:53;;;;;;;;;;;;;;;11.98;75.19;98861.22;5357540;32;34077;-64
2023/04/14 13:58:55;;;;;;;;;;;;;;;11.80;77.06;98867.69;5365470;32;34591;-64
2023/04/14 14:01:57;;;;;;;;;;;;;;;12.12;75.46;98879.53;5367422;32;34733;-75
2023/04/14 14:04:59;;;;;;;;;;;;;;;12.26;74.31;98883.00;5359720;32;33658;-65
2023/04/14 14:08:02;;;;;;;;;;;;;;;12.44;73.61;98866.75;5363873;32;33949;-77
2023/04/14 14:11:04;;;;;;;;;;;;;;;12.70;73.32;98862.25;5377149;32;33934;-78
2023/04/14 14:14:06;;;;;;;;;;;;;;;12.60;71.98;98855.09;5359256;32;34026;-75
2023/04/14 14:17:08;;;;;;;;;;;;;;;12.09;73.14;98881.53;5363505;32;34237;-77
2023/04/14 14:20:10;;;;;;;;;;;;;;;11.93;74.79;98885.22;5357448;32;47499;-64
2023/04/14 14:23:14;;;;;;;;;;;;;;;12.04;74.10;98883.63;5368822;32;33574;-63
2023/04/14 14:26:16;;;;;;;;;;;;;;;12.09;74.94;98892.91;5365101;32;33978;-65
2023/04/14 14:29:18;;;;;;;;;;;;;;;11.98;74.98;98891.94;5357034;32;33954;-62
2023/04/14 14:32:20;;;;;;;;;;;;;;;11.63;75.71;98900.41;5346052;32;36181;-64
2023/04/14 14:35:22;;;;;;;;;;;;;;;11.28;76.77;98908.88;5360449;32;34181;-76
2023/04/14 14:38:24;;;;;;;;;;;;;;;10.73;79.30;98925.53;5363721;32;33120;-77
2023/04/14 14:41:26;;;;;;;;;;;;;;;10.60;80.04;98929.88;5355719;32;33889;-76
2023/04/14 14:44:28;;;;;;;;;;;;;;;10.87;79.20;98935.16;5378201;32;33654;-76
2023/04/14 14:47:30;;;;;;;;;;;;;;;10.57;78.93;98925.66;5355791;32;34083;-76
2023/04/14 14:50:32;;;;;;;;;;;;;;;10.53;79.63;98923.31;5367343;32;33165;-65
2023/04/14 14:53:35;;;;;;;;;;;;;;;11.00;77.56;98928.19;5357937;32;32304;-64
2023/04/14 14:56:37;;;;;;;;;;;;;;;10.57;77.64;98933.53;5364804;32;34525;-77
2023/04/14 14:59:40;;;;;;;;;;;;;;;10.49;77.53;98946.28;5377196;32;33500;-63
2023/04/14 15:02:42;;;;;;;;;;;;;;;10.26;79.09;98945.06;5365115;32;46772;-76
2023/04/14 15:05:45;;;;;;;;;;;;;;;10.33;78.47;98952.59;5366493;32;35155;-63
2023/04/14 15:08:48;;;;;;;;;;;;;;;10.12;79.58;98950.28;5358695;32;34166;-77
2023/04/14 15:11:50;;;;;;;;;;;;;;;10.16;80.84;98962.28;5375012;32;33540;-76
2023/04/14 15:14:52;;;;;;;;;;;;;;;10.34;79.96;98962.16;5367047;32;34388;-76
2023/04/14 15:17:54;;;;;;;;;;;;;;;10.50;80.08;98955.03;5361985;32;36154;-65
2023/04/14 15:20:56;;;;;;;;;;;;;;;10.38;80.81;98968.91;5368702;32;33659;-73
2023/04/14 15:23:58;;;;;;;;;;;;;;;10.61;80.78;98972.75;5356288;32;33785;-64
2023/04/14 15:27:01;;;;;;;;;;;;;;;10.75;79.84;98975.34;5369591;32;34182;-65
2023/04/14 15:30:03;;;;;;;;;;;;;;;11.30;76.27;98969.25;5355319;32;33847;-72
2023/04/14 15:33:05;;;;;;;;;;;;;;;11.18;74.56;98976.12;5352328;32;33878;-65
2023/04/14 15:36:07;;;;;;;;;;;;;;;9.96;78.37;98988.88;5367792;32;33640;-65
2023/04/14 15:39:09;;;;;;;;;;;;;;;9.88;80.24;98991.09;5360310;32;34812;-63
2023/04/14 15:42:11;;;;;;;;;;;;;;;10.36;78.93;98979.47;5370879;32;44537;-78
2023/04/14 15:45:13;;;;;;;;;;;;;;;10.50;76.88;98981.31;5359183;32;33686;-76
2023/04/14 15:48:15;;;;;;;;;;;;;;;10.44;76.84;98986.94;5366718;32;34492;-65
2023/04/14 15:51:17;;;;;;;;;;;;;;;10.56;77.42;98975.62;5360559;32;34963;-66
2023/04/14 15:54:19;;;;;;;;;;;;;;;10.64;78.49;98999.69;5359894;32;34026;-65